Ciudad del Este, Paraguay

10:46 AM PYST on March 06, 2015 (GMT -0300)
Cataratas International | Change Station
CLOSE
Current Station
Airport
Location: Foz do Iguacu,
Elevation: 784 ft
Nearby Weather Stations

Elev 784 ft 25.60 °S, 54.49 °W | Updated 46 minutes ago

Mostly Cloudy
Mostly Cloudy
77 °F
Feels Like 77 °F
N
5
Wind Variable Wind from SE

Today
High -- | Low -- °F
--% Chance of Precip.
Yesterday
High -- | Low -- °F
Precip. -- in
6:35 AM 7:04 PM
Waxing Gibbous, 99% visible
Pressure 29.95 in
Visibility 6.2 miles
Clouds Scattered Clouds 500 ft
Mostly Cloudy 10000 ft
Dew Point 75 °F
Humidity 94%
Rainfall 0.00 in
Snow Depth Not available.
UV 4 out of 12
Pollen Not available.
Air Quality Not available.
Flu Activity Not available.
METAR SBFI 061300Z 13004KT 9999 SCT005 BKN100 25/24 Q1014

More Conditions Fewer Conditions

Pressure 29.95 in
Visibility 6.2 miles
Clouds Scattered Clouds 500 ft
Mostly Cloudy 10000 ft
Dew Point 75 °F
Humidity 94%
Rainfall 0.00 in
Snow Depth Not available.
UV 4 out of 12
Pollen Not available.
Air Quality Not available.
Flu Activity Not available.
METAR SBFI 061300Z 13004KT 9999 SCT005 BKN100 25/24 Q1014

More Conditions Fewer Conditions

10-Day Weather Forecast

Almanac

Astronomy

Mar. 06, 2015 Rise Set
Actual Time
Civil Twilight
Nautical Twilight
Astronomical Twilight
Moon
Length of Visible Light
Length of Day
Tomorrow will be .
, % of the Moon is Illuminated

Today's Extremes

Country Highs Country Lows

Community

WunderPhotos

Upload Photos

1,803,266 photos uploaded!

WunderBlogs® & News

Nearby

Air Quality

  Air Quality AQ Index Pollutant
Not available.

Snow Depth

Station Depth Elevation

Earthquake Activity

City Distance Mag. Time & Date
Minimum magnitude displayed is 2.5.

Coastal Water Temperatures

Place Temperature

Nearby Weather Stations